sensor_id;sensor_type;location;lat;lon;timestamp;temperature;humidity
31443;SHT31;18065;55.876;9.830;2023-02-03T06:02:31;19.06;52.33
31443;SHT31;18065;55.876;9.830;2023-02-03T06:05:00;19.44;51.62
31443;SHT31;18065;55.876;9.830;2023-02-03T06:07:28;19.79;50.85
31443;SHT31;18065;55.876;9.830;2023-02-03T06:09:57;20.06;50.25
31443;SHT31;18065;55.876;9.830;2023-02-03T06:12:26;20.19;49.79
31443;SHT31;18065;55.876;9.830;2023-02-03T06:14:54;20.36;49.66
31443;SHT31;18065;55.876;9.830;2023-02-03T06:17:23;20.44;49.66
31443;SHT31;18065;55.876;9.830;2023-02-03T06:19:54;20.49;49.47
31443;SHT31;18065;55.876;9.830;2023-02-03T06:22:23;20.53;49.34
31443;SHT31;18065;55.876;9.830;2023-02-03T06:24:52;20.59;49.29
31443;SHT31;18065;55.876;9.830;2023-02-03T06:27:20;20.64;49.19
31443;SHT31;18065;55.876;9.830;2023-02-03T06:29:49;20.67;49.16
31443;SHT31;18065;55.876;9.830;2023-02-03T06:32:18;20.69;49.05
31443;SHT31;18065;55.876;9.830;2023-02-03T06:34:47;20.71;49.09
31443;SHT31;18065;55.876;9.830;2023-02-03T06:37:18;20.74;48.98
31443;SHT31;18065;55.876;9.830;2023-02-03T06:39:47;20.77;49.01
31443;SHT31;18065;55.876;9.830;2023-02-03T06:42:15;20.78;48.92
31443;SHT31;18065;55.876;9.830;2023-02-03T06:44:44;20.76;48.92
31443;SHT31;18065;55.876;9.830;2023-02-03T06:47:13;20.80;48.97
31443;SHT31;18065;55.876;9.830;2023-02-03T06:49:41;20.80;48.93
31443;SHT31;18065;55.876;9.830;2023-02-03T06:52:10;20.84;48.96
31443;SHT31;18065;55.876;9.830;2023-02-03T06:54:42;20.80;48.89
31443;SHT31;18065;55.876;9.830;2023-02-03T06:57:11;20.83;48.85
31443;SHT31;18065;55.876;9.830;2023-02-03T06:59:40;20.81;48.87
31443;SHT31;18065;55.876;9.830;2023-02-03T07:02:09;20.84;48.82
31443;SHT31;18065;55.876;9.830;2023-02-03T07:04:38;20.84;48.82
31443;SHT31;18065;55.876;9.830;2023-02-03T07:07:09;20.83;48.79
31443;SHT31;18065;55.876;9.830;2023-02-03T07:09:38;20.84;48.71
31443;SHT31;18065;55.876;9.830;2023-02-03T07:12:09;20.85;48.71
31443;SHT31;18065;55.876;9.830;2023-02-03T07:14:38;20.85;48.68
31443;SHT31;18065;55.876;9.830;2023-02-03T07:17:07;20.87;48.68
31443;SHT31;18065;55.876;9.830;2023-02-03T07:19:35;20.87;48.68
31443;SHT31;18065;55.876;9.830;2023-02-03T07:22:04;20.88;48.62
31443;SHT31;18065;55.876;9.830;2023-02-03T07:24:33;20.85;49.02
31443;SHT31;18065;55.876;9.830;2023-02-03T07:27:01;20.90;49.02
31443;SHT31;18065;55.876;9.830;2023-02-03T07:29:33;20.91;49.09
31443;SHT31;18065;55.876;9.830;2023-02-03T07:32:02;20.92;48.77
31443;SHT31;18065;55.876;9.830;2023-02-03T07:34:30;20.97;48.69
31443;SHT31;18065;55.876;9.830;2023-02-03T07:36:59;20.97;48.70
31443;SHT31;18065;55.876;9.830;2023-02-03T07:39:28;20.99;48.69
31443;SHT31;18065;55.876;9.830;2023-02-03T07:41:57;21.01;48.71
31443;SHT31;18065;55.876;9.830;2023-02-03T07:44:26;21.01;48.64
31443;SHT31;18065;55.876;9.830;2023-02-03T07:46:57;21.02;48.45
31443;SHT31;18065;55.876;9.830;2023-02-03T07:49:26;21.04;48.43
31443;SHT31;18065;55.876;9.830;2023-02-03T07:51:55;21.05;48.29
31443;SHT31;18065;55.876;9.830;2023-02-03T07:54:23;21.07;48.20
31443;SHT31;18065;55.876;9.830;2023-02-03T07:56:52;21.05;48.08
31443;SHT31;18065;55.876;9.830;2023-02-03T07:59:21;21.07;48.09
31443;SHT31;18065;55.876;9.830;2023-02-03T08:01:50;21.08;48.19
31443;SHT31;18065;55.876;9.830;2023-02-03T08:04:23;21.07;48.21
31443;SHT31;18065;55.876;9.830;2023-02-03T08:06:52;21.09;48.13
31443;SHT31;18065;55.876;9.830;2023-02-03T08:09:20;21.08;48.06
31443;SHT31;18065;55.876;9.830;2023-02-03T08:11:49;21.09;48.05
31443;SHT31;18065;55.876;9.830;2023-02-03T08:14:18;21.12;48.02
31443;SHT31;18065;55.876;9.830;2023-02-03T08:16:46;21.12;47.99
31443;SHT31;18065;55.876;9.830;2023-02-03T08:19:15;21.15;47.95
31443;SHT31;18065;55.876;9.830;2023-02-03T08:21:46;21.16;47.86
31443;SHT31;18065;55.876;9.830;2023-02-03T08:24:15;21.16;47.81
31443;SHT31;18065;55.876;9.830;2023-02-03T08:26:44;21.18;47.75
31443;SHT31;18065;55.876;9.830;2023-02-03T08:29:13;21.16;47.73
31443;SHT31;18065;55.876;9.830;2023-02-03T08:31:42;21.18;47.68
31443;SHT31;18065;55.876;9.830;2023-02-03T08:34:10;21.18;47.61
31443;SHT31;18065;55.876;9.830;2023-02-03T08:36:39;21.19;47.61
31443;SHT31;18065;55.876;9.830;2023-02-03T08:39:11;21.22;47.56
31443;SHT31;18065;55.876;9.830;2023-02-03T08:41:40;21.19;47.50
31443;SHT31;18065;55.876;9.830;2023-02-03T08:44:08;21.22;47.48
31443;SHT31;18065;55.876;9.830;2023-02-03T08:46:37;21.23;47.44
31443;SHT31;18065;55.876;9.830;2023-02-03T08:49:08;21.22;47.40
31443;SHT31;18065;55.876;9.830;2023-02-03T08:51:40;21.22;47.34
31443;SHT31;18065;55.876;9.830;2023-02-03T08:54:11;21.22;47.39
31443;SHT31;18065;55.876;9.830;2023-02-03T08:56:40;21.25;47.39
31443;SHT31;18065;55.876;9.830;2023-02-03T08:59:09;21.27;47.39
31443;SHT31;18065;55.876;9.830;2023-02-03T09:01:38;21.25;47.30
31443;SHT31;18065;55.876;9.830;2023-02-03T09:04:10;21.27;47.26
31443;SHT31;18065;55.876;9.830;2023-02-03T09:06:39;21.25;47.18
31443;SHT31;18065;55.876;9.830;2023-02-03T09:09:10;21.27;47.21
31443;SHT31;18065;55.876;9.830;2023-02-03T09:11:39;21.25;47.20
31443;SHT31;18065;55.876;9.830;2023-02-03T09:14:08;21.25;47.12
31443;SHT31;18065;55.876;9.830;2023-02-03T09:16:37;21.23;47.12
31443;SHT31;18065;55.876;9.830;2023-02-03T09:19:06;21.22;47.09
31443;SHT31;18065;55.876;9.830;2023-02-03T09:21:35;21.23;47.06
31443;SHT31;18065;55.876;9.830;2023-02-03T09:24:04;21.21;47.09
31443;SHT31;18065;55.876;9.830;2023-02-03T09:26:36;21.21;47.06
31443;SHT31;18065;55.876;9.830;2023-02-03T09:29:04;21.21;47.05
31443;SHT31;18065;55.876;9.830;2023-02-03T09:31:33;21.21;47.04
31443;SHT31;18065;55.876;9.830;2023-02-03T09:34:02;21.18;47.05
31443;SHT31;18065;55.876;9.830;2023-02-03T09:36:30;21.19;47.02
31443;SHT31;18065;55.876;9.830;2023-02-03T09:38:59;21.19;46.96
31443;SHT31;18065;55.876;9.830;2023-02-03T09:44:31;21.16;46.98
31443;SHT31;18065;55.876;9.830;2023-02-03T09:47:04;21.21;46.95
31443;SHT31;18065;55.876;9.830;2023-02-03T09:49:40;21.19;46.91
31443;SHT31;18065;55.876;9.830;2023-02-03T09:52:14;21.16;46.91
31443;SHT31;18065;55.876;9.830;2023-02-03T09:54:48;21.19;46.89
31443;SHT31;18065;55.876;9.830;2023-02-03T09:57:20;21.18;46.91
31443;SHT31;18065;55.876;9.830;2023-02-03T09:59:55;21.16;46.86
31443;SHT31;18065;55.876;9.830;2023-02-03T10:02:37;21.18;46.82
31443;SHT31;18065;55.876;9.830;2023-02-03T10:05:17;21.19;46.83
31443;SHT31;18065;55.876;9.830;2023-02-03T10:07:54;21.19;46.78
31443;SHT31;18065;55.876;9.830;2023-02-03T10:10:33;21.18;46.63
31443;SHT31;18065;55.876;9.830;2023-02-03T10:13:14;21.16;46.61
31443;SHT31;18065;55.876;9.830;2023-02-03T10:18:40;21.18;46.69
31443;SHT31;18065;55.876;9.830;2023-02-03T10:21:15;21.18;46.76
31443;SHT31;18065;55.876;9.830;2023-02-03T10:23:45;21.14;46.83
31443;SHT31;18065;55.876;9.830;2023-02-03T10:26:18;21.15;46.86
31443;SHT31;18065;55.876;9.830;2023-02-03T10:28:53;21.14;46.89
31443;SHT31;18065;55.876;9.830;2023-02-03T10:31:26;21.16;46.85
31443;SHT31;18065;55.876;9.830;2023-02-03T10:33:59;21.16;46.83
31443;SHT31;18065;55.876;9.830;2023-02-03T10:36:37;21.15;46.86
31443;SHT31;18065;55.876;9.830;2023-02-03T10:39:17;21.16;46.81
31443;SHT31;18065;55.876;9.830;2023-02-03T10:41:49;21.16;46.77
31443;SHT31;18065;55.876;9.830;2023-02-03T10:44:17;21.15;46.76
31443;SHT31;18065;55.876;9.830;2023-02-03T10:46:49;21.16;46.78
31443;SHT31;18065;55.876;9.830;2023-02-03T10:49:17;21.15;46.75
31443;SHT31;18065;55.876;9.830;2023-02-03T10:51:50;21.16;46.74
31443;SHT31;18065;55.876;9.830;2023-02-03T10:54:28;21.15;46.73
31443;SHT31;18065;55.876;9.830;2023-02-03T10:57:02;21.15;46.77
31443;SHT31;18065;55.876;9.830;2023-02-03T10:59:34;21.15;46.74
31443;SHT31;18065;55.876;9.830;2023-02-03T11:02:21;21.14;46.76
31443;SHT31;18065;55.876;9.830;2023-02-03T11:05:08;21.15;46.77
31443;SHT31;18065;55.876;9.830;2023-02-03T11:07:37;21.18;46.67
31443;SHT31;18065;55.876;9.830;2023-02-03T11:10:27;21.14;46.70
31443;SHT31;18065;55.876;9.830;2023-02-03T11:13:11;21.16;46.66
31443;SHT31;18065;55.876;9.830;2023-02-03T11:15:54;21.14;46.65
31443;SHT31;18065;55.876;9.830;2023-02-03T11:18:40;21.16;46.69
31443;SHT31;18065;55.876;9.830;2023-02-03T11:21:11;21.14;46.68
31443;SHT31;18065;55.876;9.830;2023-02-03T11:23:49;21.15;46.65
31443;SHT31;18065;55.876;9.830;2023-02-03T11:26:22;21.14;46.62
31443;SHT31;18065;55.876;9.830;2023-02-03T11:28:54;21.15;46.61
31443;SHT31;18065;55.876;9.830;2023-02-03T11:31:25;21.16;46.61
31443;SHT31;18065;55.876;9.830;2023-02-03T11:34:00;21.15;46.68
31443;SHT31;18065;55.876;9.830;2023-02-03T11:36:31;21.14;46.63
31443;SHT31;18065;55.876;9.830;2023-02-03T11:39:16;21.15;46.69
31443;SHT31;18065;55.876;9.830;2023-02-03T11:41:45;21.12;46.63
31443;SHT31;18065;55.876;9.830;2023-02-03T11:44:20;21.14;46.61
31443;SHT31;18065;55.876;9.830;2023-02-03T11:46:53;21.14;46.62
31443;SHT31;18065;55.876;9.830;2023-02-03T11:52:59;21.15;46.58
31443;SHT31;18065;55.876;9.830;2023-02-03T11:55:43;21.14;46.59
31443;SHT31;18065;55.876;9.830;2023-02-03T11:58:40;21.12;46.66
31443;SHT31;18065;55.876;9.830;2023-02-03T12:01:18;21.12;46.59
31443;SHT31;18065;55.876;9.830;2023-02-03T12:04:17;21.14;46.65
31443;SHT31;18065;55.876;9.830;2023-02-03T12:06:58;21.12;46.62
31443;SHT31;18065;55.876;9.830;2023-02-03T12:09:37;21.14;46.64
31443;SHT31;18065;55.876;9.830;2023-02-03T12:12:25;21.14;46.59
31443;SHT31;18065;55.876;9.830;2023-02-03T12:15:05;21.15;46.57
31443;SHT31;18065;55.876;9.830;2023-02-03T12:17:52;21.12;46.59
31443;SHT31;18065;55.876;9.830;2023-02-03T12:20:36;21.15;46.64
31443;SHT31;18065;55.876;9.830;2023-02-03T12:23:17;21.14;46.62
31443;SHT31;18065;55.876;9.830;2023-02-03T12:26:04;21.16;46.61
31443;SHT31;18065;55.876;9.830;2023-02-03T12:28:45;21.15;46.63
31443;SHT31;18065;55.876;9.830;2023-02-03T12:31:22;21.15;46.63
31443;SHT31;18065;55.876;9.830;2023-02-03T12:34:00;21.15;46.61
31443;SHT31;18065;55.876;9.830;2023-02-03T12:36:36;21.15;46.64
31443;SHT31;18065;55.876;9.830;2023-02-03T12:39:11;21.18;46.59
31443;SHT31;18065;55.876;9.830;2023-02-03T12:41:48;21.19;46.62
31443;SHT31;18065;55.876;9.830;2023-02-03T12:44:22;21.18;46.55
31443;SHT31;18065;55.876;9.830;2023-02-03T12:47:00;21.18;46.52
31443;SHT31;18065;55.876;9.830;2023-02-03T12:49:37;21.19;46.60
31443;SHT31;18065;55.876;9.830;2023-02-03T12:52:15;21.19;46.53
31443;SHT31;18065;55.876;9.830;2023-02-03T12:54:51;21.21;46.47
31443;SHT31;18065;55.876;9.830;2023-02-03T12:57:29;21.21;46.54
31443;SHT31;18065;55.876;9.830;2023-02-03T13:00:08;21.18;46.47
31443;SHT31;18065;55.876;9.830;2023-02-03T13:02:46;21.18;46.42
31443;SHT31;18065;55.876;9.830;2023-02-03T13:05:22;21.18;46.40
31443;SHT31;18065;55.876;9.830;2023-02-03T13:07:58;21.15;46.35
31443;SHT31;18065;55.876;9.830;2023-02-03T13:10:32;21.14;46.27
31443;SHT31;18065;55.876;9.830;2023-02-03T13:13:07;21.15;46.22
31443;SHT31;18065;55.876;9.830;2023-02-03T13:15:39;21.14;46.19
31443;SHT31;18065;55.876;9.830;2023-02-03T13:18:18;21.16;46.22
31443;SHT31;18065;55.876;9.830;2023-02-03T13:20:51;21.15;46.28
31443;SHT31;18065;55.876;9.830;2023-02-03T13:23:21;21.16;46.36
31443;SHT31;18065;55.876;9.830;2023-02-03T13:26:02;21.15;46.45
31443;SHT31;18065;55.876;9.830;2023-02-03T13:28:48;21.16;46.44
31443;SHT31;18065;55.876;9.830;2023-02-03T13:31:29;21.15;46.45
31443;SHT31;18065;55.876;9.830;2023-02-03T13:34:23;21.14;46.47
31443;SHT31;18065;55.876;9.830;2023-02-03T13:37:09;21.18;46.52
31443;SHT31;18065;55.876;9.830;2023-02-03T13:39:49;21.18;46.48
31443;SHT31;18065;55.876;9.830;2023-02-03T13:42:23;21.21;46.46
31443;SHT31;18065;55.876;9.830;2023-02-03T13:45:01;21.19;46.45
31443;SHT31;18065;55.876;9.830;2023-02-03T13:47:31;21.22;46.42
31443;SHT31;18065;55.876;9.830;2023-02-03T13:50:02;21.21;46.40
31443;SHT31;18065;55.876;9.830;2023-02-03T13:52:35;21.19;46.38
31443;SHT31;18065;55.876;9.830;2023-02-03T13:55:06;21.22;46.31
31443;SHT31;18065;55.876;9.830;2023-02-03T13:57:36;21.21;46.25
31443;SHT31;18065;55.876;9.830;2023-02-03T14:03:15;21.21;46.18
31443;SHT31;18065;55.876;9.830;2023-02-03T14:05:45;21.21;46.21
31443;SHT31;18065;55.876;9.830;2023-02-03T14:11:41;21.21;46.19
31443;SHT31;18065;55.876;9.830;2023-02-03T14:20:42;21.21;46.37
31443;SHT31;18065;55.876;9.830;2023-02-03T14:23:17;21.22;46.43
31443;SHT31;18065;55.876;9.830;2023-02-03T14:25:49;21.22;46.46
31443;SHT31;18065;55.876;9.830;2023-02-03T14:28:20;21.22;46.45
31443;SHT31;18065;55.876;9.830;2023-02-03T14:31:04;21.22;46.56
31443;SHT31;18065;55.876;9.830;2023-02-03T14:34:06;21.23;46.58
31443;SHT31;18065;55.876;9.830;2023-02-03T14:36:49;21.27;46.63
31443;SHT31;18065;55.876;9.830;2023-02-03T14:39:42;21.23;46.68
31443;SHT31;18065;55.876;9.830;2023-02-03T14:42:31;21.25;46.75
31443;SHT31;18065;55.876;9.830;2023-02-03T14:45:15;21.28;46.66
31443;SHT31;18065;55.876;9.830;2023-02-03T14:47:51;21.28;46.73
31443;SHT31;18065;55.876;9.830;2023-02-03T14:50:37;21.25;46.73
31443;SHT31;18065;55.876;9.830;2023-02-03T14:53:27;21.27;46.68
31443;SHT31;18065;55.876;9.830;2023-02-03T14:56:11;21.25;46.62
31443;SHT31;18065;55.876;9.830;2023-02-03T14:58:43;21.25;46.59
31443;SHT31;18065;55.876;9.830;2023-02-03T15:01:25;21.25;46.65
31443;SHT31;18065;55.876;9.830;2023-02-03T15:04:20;21.23;46.68
31443;SHT31;18065;55.876;9.830;2023-02-03T15:06:51;21.21;46.70
31443;SHT31;18065;55.876;9.830;2023-02-03T15:09:27;21.23;46.71
31443;SHT31;18065;55.876;9.830;2023-02-03T15:11:56;21.21;46.69
31443;SHT31;18065;55.876;9.830;2023-02-03T15:14:26;21.21;46.69
31443;SHT31;18065;55.876;9.830;2023-02-03T15:16:57;21.23;46.67
31443;SHT31;18065;55.876;9.830;2023-02-03T15:19:30;21.18;46.68
31443;SHT31;18065;55.876;9.830;2023-02-03T15:22:00;21.21;46.69
31443;SHT31;18065;55.876;9.830;2023-02-03T15:24:36;21.19;46.67
31443;SHT31;18065;55.876;9.830;2023-02-03T15:27:19;21.21;46.70
31443;SHT31;18065;55.876;9.830;2023-02-03T15:29:49;21.19;46.63
31443;SHT31;18065;55.876;9.830;2023-02-03T15:32:20;21.19;46.69
31443;SHT31;18065;55.876;9.830;2023-02-03T15:34:51;21.21;46.64
31443;SHT31;18065;55.876;9.830;2023-02-03T15:37:25;21.15;46.61
31443;SHT31;18065;55.876;9.830;2023-02-03T15:40:00;21.16;46.65
31443;SHT31;18065;55.876;9.830;2023-02-03T15:42:41;21.16;46.68
31443;SHT31;18065;55.876;9.830;2023-02-03T15:45:21;21.12;46.66
31443;SHT31;18065;55.876;9.830;2023-02-03T15:47:54;21.12;46.65
31443;SHT31;18065;55.876;9.830;2023-02-03T15:50:28;21.14;46.69
31443;SHT31;18065;55.876;9.830;2023-02-03T15:53:02;21.12;46.72
31443;SHT31;18065;55.876;9.830;2023-02-03T15:55:34;21.21;46.72
31443;SHT31;18065;55.876;9.830;2023-02-03T15:58:05;21.12;46.70
31443;SHT31;18065;55.876;9.830;2023-02-03T16:00:39;21.12;46.76
31443;SHT31;18065;55.876;9.830;2023-02-03T16:03:16;21.11;46.79
31443;SHT31;18065;55.876;9.830;2023-02-03T16:05:47;21.12;46.77
31443;SHT31;18065;55.876;9.830;2023-02-03T16:08:41;21.12;46.87
31443;SHT31;18065;55.876;9.830;2023-02-03T16:11:32;21.14;46.92
31443;SHT31;18065;55.876;9.830;2023-02-03T16:14:02;21.11;46.90
31443;SHT31;18065;55.876;9.830;2023-02-03T16:16:35;21.11;46.94
31443;SHT31;18065;55.876;9.830;2023-02-03T16:19:09;21.11;46.96
31443;SHT31;18065;55.876;9.830;2023-02-03T16:21:51;21.11;47.04
31443;SHT31;18065;55.876;9.830;2023-02-03T16:24:37;21.12;47.05
31443;SHT31;18065;55.876;9.830;2023-02-03T16:27:30;21.11;47.15
31443;SHT31;18065;55.876;9.830;2023-02-03T16:30:21;21.11;47.19
31443;SHT31;18065;55.876;9.830;2023-02-03T16:33:10;21.08;47.27
31443;SHT31;18065;55.876;9.830;2023-02-03T16:35:52;21.08;47.41
31443;SHT31;18065;55.876;9.830;2023-02-03T16:38:33;21.09;47.52
31443;SHT31;18065;55.876;9.830;2023-02-03T16:41:16;21.11;47.53
31443;SHT31;18065;55.876;9.830;2023-02-03T16:43:59;21.09;47.72
31443;SHT31;18065;55.876;9.830;2023-02-03T16:46:41;21.09;47.77
31443;SHT31;18065;55.876;9.830;2023-02-03T16:49:22;21.09;47.85
31443;SHT31;18065;55.876;9.830;2023-02-03T16:52:03;21.07;47.93
31443;SHT31;18065;55.876;9.830;2023-02-03T16:54:33;21.09;47.99
31443;SHT31;18065;55.876;9.830;2023-02-03T16:57:01;21.09;47.98
31443;SHT31;18065;55.876;9.830;2023-02-03T16:59:33;21.09;48.05
31443;SHT31;18065;55.876;9.830;2023-02-03T17:02:02;21.11;48.12
31443;SHT31;18065;55.876;9.830;2023-02-03T17:04:30;21.09;48.17
31443;SHT31;18065;55.876;9.830;2023-02-03T17:07:00;21.09;48.20
31443;SHT31;18065;55.876;9.830;2023-02-03T17:09:29;21.08;48.28
31443;SHT31;18065;55.876;9.830;2023-02-03T17:12:00;21.09;48.33
31443;SHT31;18065;55.876;9.830;2023-02-03T17:14:29;21.11;48.30
31443;SHT31;18065;55.876;9.830;2023-02-03T17:17:00;21.11;48.37
31443;SHT31;18065;55.876;9.830;2023-02-03T17:19:29;21.11;48.41
31443;SHT31;18065;55.876;9.830;2023-02-03T17:21:57;21.12;48.43
31443;SHT31;18065;55.876;9.830;2023-02-03T17:24:26;21.12;48.52
31443;SHT31;18065;55.876;9.830;2023-02-03T17:26:57;21.14;48.62
31443;SHT31;18065;55.876;9.830;2023-02-03T17:29:28;21.16;49.04
31443;SHT31;18065;55.876;9.830;2023-02-03T17:31:56;21.18;48.88
31443;SHT31;18065;55.876;9.830;2023-02-03T17:34:28;21.18;48.93
31443;SHT31;18065;55.876;9.830;2023-02-03T17:36:56;21.19;48.97
31443;SHT31;18065;55.876;9.830;2023-02-03T17:39:25;21.21;49.01
31443;SHT31;18065;55.876;9.830;2023-02-03T17:41:54;21.18;48.98
31443;SHT31;18065;55.876;9.830;2023-02-03T17:44:22;21.22;48.84
31443;SHT31;18065;55.876;9.830;2023-02-03T17:46:51;21.22;48.80
31443;SHT31;18065;55.876;9.830;2023-02-03T17:49:20;21.22;48.99
31443;SHT31;18065;55.876;9.830;2023-02-03T17:51:51;21.27;49.09
31443;SHT31;18065;55.876;9.830;2023-02-03T17:54:20;21.23;49.11
31443;SHT31;18065;55.876;9.830;2023-02-03T17:56:49;21.23;49.10
31443;SHT31;18065;55.876;9.830;2023-02-03T17:59:17;21.27;48.95
31443;SHT31;18065;55.876;9.830;2023-02-03T18:01:46;21.27;48.89
31443;SHT31;18065;55.876;9.830;2023-02-03T18:04:15;21.23;48.83
31443;SHT31;18065;55.876;9.830;2023-02-03T18:06:43;21.23;48.78
31443;SHT31;18065;55.876;9.830;2023-02-03T18:09:15;21.22;48.76
31443;SHT31;18065;55.876;9.830;2023-02-03T18:11:44;21.23;48.70
31443;SHT31;18065;55.876;9.830;2023-02-03T18:14:13;21.22;48.65
31443;SHT31;18065;55.876;9.830;2023-02-03T18:16:43;21.23;48.68
31443;SHT31;18065;55.876;9.830;2023-02-03T18:19:13;21.23;48.63
31443;SHT31;18065;55.876;9.830;2023-02-03T18:21:43;21.22;48.66
31443;SHT31;18065;55.876;9.830;2023-02-03T18:24:15;21.23;48.61
31443;SHT31;18065;55.876;9.830;2023-02-03T18:26:49;21.25;48.72
31443;SHT31;18065;55.876;9.830;2023-02-03T18:29:18;21.23;48.78
31443;SHT31;18065;55.876;9.830;2023-02-03T18:31:49;21.22;48.82
31443;SHT31;18065;55.876;9.830;2023-02-03T18:34:18;21.22;48.73
31443;SHT31;18065;55.876;9.830;2023-02-03T18:36:46;21.22;48.73
31443;SHT31;18065;55.876;9.830;2023-02-03T18:39:18;21.21;48.66
31443;SHT31;18065;55.876;9.830;2023-02-03T18:41:46;21.21;48.51
31443;SHT31;18065;55.876;9.830;2023-02-03T18:44:15;21.19;48.42
31443;SHT31;18065;55.876;9.830;2023-02-03T18:46:43;21.18;48.27
31443;SHT31;18065;55.876;9.830;2023-02-03T18:49:12;21.19;48.10
31443;SHT31;18065;55.876;9.830;2023-02-03T18:51:42;21.19;48.03
31443;SHT31;18065;55.876;9.830;2023-02-03T18:54:11;21.21;47.84
31443;SHT31;18065;55.876;9.830;2023-02-03T18:56:42;21.18;47.82
31443;SHT31;18065;55.876;9.830;2023-02-03T18:59:11;21.16;47.82
31443;SHT31;18065;55.876;9.830;2023-02-03T19:01:39;21.18;47.77
31443;SHT31;18065;55.876;9.830;2023-02-03T19:04:11;21.14;47.75
31443;SHT31;18065;55.876;9.830;2023-02-03T19:06:39;21.15;47.75
31443;SHT31;18065;55.876;9.830;2023-02-03T19:09:10;21.12;47.71
31443;SHT31;18065;55.876;9.830;2023-02-03T19:11:44;21.12;47.66
31443;SHT31;18065;55.876;9.830;2023-02-03T19:14:13;21.11;47.64
31443;SHT31;18065;55.876;9.830;2023-02-03T19:16:42;21.09;47.67
31443;SHT31;18065;55.876;9.830;2023-02-03T19:19:11;21.09;47.62
31443;SHT31;18065;55.876;9.830;2023-02-03T19:21:40;21.09;47.61
31443;SHT31;18065;55.876;9.830;2023-02-03T19:24:11;21.09;47.65
31443;SHT31;18065;55.876;9.830;2023-02-03T19:26:41;21.07;47.57
31443;SHT31;18065;55.876;9.830;2023-02-03T19:29:12;21.05;47.59
31443;SHT31;18065;55.876;9.830;2023-02-03T19:31:41;21.04;47.58
31443;SHT31;18065;55.876;9.830;2023-02-03T19:34:10;21.07;47.58
31443;SHT31;18065;55.876;9.830;2023-02-03T19:36:41;21.04;47.63
31443;SHT31;18065;55.876;9.830;2023-02-03T19:39:11;21.04;47.57
31443;SHT31;18065;55.876;9.830;2023-02-03T19:41:40;21.02;47.61
31443;SHT31;18065;55.876;9.830;2023-02-03T19:44:12;20.99;47.59
31443;SHT31;18065;55.876;9.830;2023-02-03T19:46:41;21.01;47.58
31443;SHT31;18065;55.876;9.830;2023-02-03T19:49:10;21.02;47.49
31443;SHT31;18065;55.876;9.830;2023-02-03T19:51:40;21.04;47.41
31443;SHT31;18065;55.876;9.830;2023-02-03T19:54:10;21.05;47.48
31443;SHT31;18065;55.876;9.830;2023-02-03T19:56:39;21.04;47.50
31443;SHT31;18065;55.876;9.830;2023-02-03T19:59:14;21.07;47.51
31443;SHT31;18065;55.876;9.830;2023-02-03T20:01:42;21.07;47.51
31443;SHT31;18065;55.876;9.830;2023-02-03T20:04:11;21.07;47.52
31443;SHT31;18065;55.876;9.830;2023-02-03T20:06:40;21.08;47.49
31443;SHT31;18065;55.876;9.830;2023-02-03T20:09:09;21.08;47.47
31443;SHT31;18065;55.876;9.830;2023-02-03T20:11:38;21.09;47.51
31443;SHT31;18065;55.876;9.830;2023-02-03T20:14:06;21.08;47.46
31443;SHT31;18065;55.876;9.830;2023-02-03T20:16:38;21.07;47.48
31443;SHT31;18065;55.876;9.830;2023-02-03T20:19:08;21.07;47.46
31443;SHT31;18065;55.876;9.830;2023-02-03T20:21:36;21.08;47.43
31443;SHT31;18065;55.876;9.830;2023-02-03T20:24:05;21.08;47.42
31443;SHT31;18065;55.876;9.830;2023-02-03T20:26:34;21.08;47.40
31443;SHT31;18065;55.876;9.830;2023-02-03T20:29:03;21.07;47.40
31443;SHT31;18065;55.876;9.830;2023-02-03T20:31:32;21.09;47.38
31443;SHT31;18065;55.876;9.830;2023-02-03T20:34:03;21.07;47.39
31443;SHT31;18065;55.876;9.830;2023-02-03T20:36:32;21.07;47.36
31443;SHT31;18065;55.876;9.830;2023-02-03T20:39:00;21.05;47.35
31443;SHT31;18065;55.876;9.830;2023-02-03T20:41:29;21.07;47.36
31443;SHT31;18065;55.876;9.830;2023-02-03T20:43:58;21.05;47.33
31443;SHT31;18065;55.876;9.830;2023-02-03T20:46:27;21.08;47.34
31443;SHT31;18065;55.876;9.830;2023-02-03T20:48:55;21.07;47.36
31443;SHT31;18065;55.876;9.830;2023-02-03T20:51:27;21.05;47.32
31443;SHT31;18065;55.876;9.830;2023-02-03T20:53:56;21.04;47.35
31443;SHT31;18065;55.876;9.830;2023-02-03T20:56:25;21.02;47.36
31443;SHT31;18065;55.876;9.830;2023-02-03T20:58:53;21.05;47.35
31443;SHT31;18065;55.876;9.830;2023-02-03T21:01:22;21.04;47.39
31443;SHT31;18065;55.876;9.830;2023-02-03T21:03:51;21.01;47.37
31443;SHT31;18065;55.876;9.830;2023-02-03T21:06:35;21.02;47.44
31443;SHT31;18065;55.876;9.830;2023-02-03T21:09:11;21.02;47.42
31443;SHT31;18065;55.876;9.830;2023-02-03T21:11:41;21.02;47.42
31443;SHT31;18065;55.876;9.830;2023-02-03T21:14:18;21.01;47.46
31443;SHT31;18065;55.876;9.830;2023-02-03T21:16:47;21.01;47.43
31443;SHT31;18065;55.876;9.830;2023-02-03T21:19:36;20.98;47.48
31443;SHT31;18065;55.876;9.830;2023-02-03T21:22:14;20.99;47.47
31443;SHT31;18065;55.876;9.830;2023-02-03T21:24:48;20.97;47.51
31443;SHT31;18065;55.876;9.830;2023-02-03T21:27:23;20.95;47.54
31443;SHT31;18065;55.876;9.830;2023-02-03T21:29:53;20.98;47.55
31443;SHT31;18065;55.876;9.830;2023-02-03T21:32:24;20.94;47.55
31443;SHT31;18065;55.876;9.830;2023-02-03T21:34:53;20.95;47.59
31443;SHT31;18065;55.876;9.830;2023-02-03T21:37:36;20.92;47.61
31443;SHT31;18065;55.876;9.830;2023-02-03T21:40:17;20.92;47.65
31443;SHT31;18065;55.876;9.830;2023-02-03T21:42:45;20.92;47.59
31443;SHT31;18065;55.876;9.830;2023-02-03T21:45:26;20.92;47.66
31443;SHT31;18065;55.876;9.830;2023-02-03T21:47:57;20.91;47.64
31443;SHT31;18065;55.876;9.830;2023-02-03T21:50:28;20.90;47.69
31443;SHT31;18065;55.876;9.830;2023-02-03T21:53:14;20.90;47.66
31443;SHT31;18065;55.876;9.830;2023-02-03T21:55:46;20.90;47.61
31443;SHT31;18065;55.876;9.830;2023-02-03T21:58:20;20.90;47.71
31443;SHT31;18065;55.876;9.830;2023-02-03T22:00:50;20.91;47.67
31443;SHT31;18065;55.876;9.830;2023-02-03T22:03:24;20.91;47.66
31443;SHT31;18065;55.876;9.830;2023-02-03T22:06:02;20.90;47.67
31443;SHT31;18065;55.876;9.830;2023-02-03T22:08:35;20.87;47.63
31443;SHT31;18065;55.876;9.830;2023-02-03T22:11:05;20.90;47.63
31443;SHT31;18065;55.876;9.830;2023-02-03T22:13:34;20.90;47.64
31443;SHT31;18065;55.876;9.830;2023-02-03T22:16:04;20.88;47.65
31443;SHT31;18065;55.876;9.830;2023-02-03T22:18:33;20.87;47.66
31443;SHT31;18065;55.876;9.830;2023-02-03T22:21:03;20.87;47.69
31443;SHT31;18065;55.876;9.830;2023-02-03T22:23:35;20.87;47.70
31443;SHT31;18065;55.876;9.830;2023-02-03T22:26:04;20.87;47.66
31443;SHT31;18065;55.876;9.830;2023-02-03T22:28:33;20.87;47.67
31443;SHT31;18065;55.876;9.830;2023-02-03T22:31:03;20.85;47.70